sensor_id;sensor_type;location;lat;lon;timestamp;pressure;altitude;pressure_sealevel;temperature;humidity
26112;BME280;13829;48.990;8.346;2023-07-22T00:00:03;100370.03;;;17.69;94.36
26112;BME280;13829;48.990;8.346;2023-07-22T00:02:37;100362.31;;;17.60;94.78
26112;BME280;13829;48.990;8.346;2023-07-22T00:05:06;100361.41;;;17.61;94.92
26112;BME280;13829;48.990;8.346;2023-07-22T00:07:34;100363.91;;;17.67;93.70
26112;BME280;13829;48.990;8.346;2023-07-22T00:10:01;100360.31;;;17.32;95.17
26112;BME280;13829;48.990;8.346;2023-07-22T00:12:28;100356.28;;;17.16;96.71
26112;BME280;13829;48.990;8.346;2023-07-22T00:14:56;100364.47;;;17.06;97.78
26112;BME280;13829;48.990;8.346;2023-07-22T00:17:23;100352.84;;;17.10;98.72
26112;BME280;13829;48.990;8.346;2023-07-22T00:19:50;100350.91;;;17.17;99.14
26112;BME280;13829;48.990;8.346;2023-07-22T00:22:18;100354.47;;;17.16;99.42
26112;BME280;13829;48.990;8.346;2023-07-22T00:24:45;100349.97;;;17.20;99.50
26112;BME280;13829;48.990;8.346;2023-07-22T00:27:12;100355.88;;;17.33;98.17
26112;BME280;13829;48.990;8.346;2023-07-22T00:29:39;100345.59;;;17.17;98.80
26112;BME280;13829;48.990;8.346;2023-07-22T00:32:08;100345.16;;;16.98;99.44
26112;BME280;13829;48.990;8.346;2023-07-22T00:34:35;100343.50;;;16.92;100.00
26112;BME280;13829;48.990;8.346;2023-07-22T00:37:02;100347.81;;;16.98;100.00
26112;BME280;13829;48.990;8.346;2023-07-22T00:39:30;100349.47;;;17.04;100.00
26112;BME280;13829;48.990;8.346;2023-07-22T00:41:57;100352.00;;;17.08;100.00
26112;BME280;13829;48.990;8.346;2023-07-22T00:44:24;100366.59;;;16.89;100.00
26112;BME280;13829;48.990;8.346;2023-07-22T00:46:56;100350.78;;;16.83;100.00
26112;BME280;13829;48.990;8.346;2023-07-22T00:49:26;100360.63;;;16.77;100.00
26112;BME280;13829;48.990;8.346;2023-07-22T00:51:56;100359.66;;;16.82;100.00
26112;BME280;13829;48.990;8.346;2023-07-22T00:54:27;100352.44;;;16.87;100.00
26112;BME280;13829;48.990;8.346;2023-07-22T00:56:57;100357.88;;;16.80;100.00
26112;BME280;13829;48.990;8.346;2023-07-22T00:59:24;100359.78;;;16.75;100.00
26112;BME280;13829;48.990;8.346;2023-07-22T01:01:51;100347.25;;;16.80;100.00
26112;BME280;13829;48.990;8.346;2023-07-22T01:04:20;100359.84;;;16.72;100.00
26112;BME280;13829;48.990;8.346;2023-07-22T01:06:50;100351.94;;;16.69;100.00
26112;BME280;13829;48.990;8.346;2023-07-22T01:09:18;100352.03;;;16.65;100.00
26112;BME280;13829;48.990;8.346;2023-07-22T01:11:45;100358.31;;;16.62;100.00
26112;BME280;13829;48.990;8.346;2023-07-22T01:14:14;100353.13;;;16.56;100.00
26112;BME280;13829;48.990;8.346;2023-07-22T01:16:42;100355.66;;;16.62;100.00
26112;BME280;13829;48.990;8.346;2023-07-22T01:19:10;100354.41;;;16.78;100.00
26112;BME280;13829;48.990;8.346;2023-07-22T01:21:38;100344.78;;;16.73;100.00
26112;BME280;13829;48.990;8.346;2023-07-22T01:24:07;100354.41;;;16.78;100.00
26112;BME280;13829;48.990;8.346;2023-07-22T01:26:34;100341.00;;;16.83;99.11
26112;BME280;13829;48.990;8.346;2023-07-22T01:29:03;100334.06;;;16.77;99.08
26112;BME280;13829;48.990;8.346;2023-07-22T01:31:34;100327.97;;;16.72;99.21
26112;BME280;13829;48.990;8.346;2023-07-22T01:34:01;100336.50;;;16.46;100.00
26112;BME280;13829;48.990;8.346;2023-07-22T01:36:29;100334.03;;;16.37;100.00
26112;BME280;13829;48.990;8.346;2023-07-22T01:38:56;100330.47;;;16.36;100.00
26112;BME280;13829;48.990;8.346;2023-07-22T01:41:25;100338.63;;;16.27;100.00
26112;BME280;13829;48.990;8.346;2023-07-22T01:43:52;100337.97;;;16.16;100.00
26112;BME280;13829;48.990;8.346;2023-07-22T01:46:18;100348.63;;;16.12;100.00
26112;BME280;13829;48.990;8.346;2023-07-22T01:48:47;100339.94;;;16.04;100.00
26112;BME280;13829;48.990;8.346;2023-07-22T01:51:14;100330.59;;;16.30;100.00
26112;BME280;13829;48.990;8.346;2023-07-22T01:53:40;100330.56;;;16.33;100.00
26112;BME280;13829;48.990;8.346;2023-07-22T01:56:07;100327.13;;;16.28;100.00
26112;BME280;13829;48.990;8.346;2023-07-22T01:58:36;100322.88;;;16.19;100.00
26112;BME280;13829;48.990;8.346;2023-07-22T02:01:03;100338.28;;;16.00;100.00
26112;BME280;13829;48.990;8.346;2023-07-22T02:03:30;100327.91;;;15.86;100.00
26112;BME280;13829;48.990;8.346;2023-07-22T02:06:02;100336.19;;;15.66;100.00
26112;BME280;13829;48.990;8.346;2023-07-22T02:08:29;100329.28;;;15.56;100.00
26112;BME280;13829;48.990;8.346;2023-07-22T02:11:01;100336.44;;;15.51;100.00
26112;BME280;13829;48.990;8.346;2023-07-22T02:13:29;100334.81;;;15.42;100.00
26112;BME280;13829;48.990;8.346;2023-07-22T02:15:59;100334.81;;;15.42;100.00
26112;BME280;13829;48.990;8.346;2023-07-22T02:18:26;100339.16;;;15.46;100.00
26112;BME280;13829;48.990;8.346;2023-07-22T02:20:53;100340.56;;;15.69;100.00
26112;BME280;13829;48.990;8.346;2023-07-22T02:23:21;100343.00;;;15.82;100.00
26112;BME280;13829;48.990;8.346;2023-07-22T02:25:49;100342.78;;;15.95;100.00
26112;BME280;13829;48.990;8.346;2023-07-22T02:28:15;100350.06;;;15.84;100.00
26112;BME280;13829;48.990;8.346;2023-07-22T02:30:46;100338.66;;;15.75;100.00
26112;BME280;13829;48.990;8.346;2023-07-22T02:33:15;100347.84;;;15.56;100.00
26112;BME280;13829;48.990;8.346;2023-07-22T02:35:42;100335.66;;;15.45;100.00
26112;BME280;13829;48.990;8.346;2023-07-22T02:38:09;100335.56;;;15.50;100.00
26112;BME280;13829;48.990;8.346;2023-07-22T02:40:37;100333.88;;;15.46;100.00
26112;BME280;13829;48.990;8.346;2023-07-22T02:43:04;100329.97;;;15.11;100.00
26112;BME280;13829;48.990;8.346;2023-07-22T02:45:32;100335.38;;;15.05;100.00
26112;BME280;13829;48.990;8.346;2023-07-22T02:47:59;100334.34;;;15.13;100.00
26112;BME280;13829;48.990;8.346;2023-07-22T02:50:27;100337.78;;;15.22;100.00
26112;BME280;13829;48.990;8.346;2023-07-22T02:52:54;100333.31;;;15.25;100.00
26112;BME280;13829;48.990;8.346;2023-07-22T02:55:22;100329.69;;;15.31;100.00
26112;BME280;13829;48.990;8.346;2023-07-22T02:57:49;100330.66;;;15.24;100.00
26112;BME280;13829;48.990;8.346;2023-07-22T03:00:19;100335.94;;;15.27;100.00
26112;BME280;13829;48.990;8.346;2023-07-22T03:02:49;100337.06;;;15.10;100.00
26112;BME280;13829;48.990;8.346;2023-07-22T03:05:17;100333.47;;;15.14;100.00
26112;BME280;13829;48.990;8.346;2023-07-22T03:07:45;100341.47;;;15.11;100.00
26112;BME280;13829;48.990;8.346;2023-07-22T03:10:12;100342.38;;;15.09;100.00
26112;BME280;13829;48.990;8.346;2023-07-22T03:12:39;100351.41;;;14.94;100.00
26112;BME280;13829;48.990;8.346;2023-07-22T03:15:07;100346.94;;;14.99;100.00
26112;BME280;13829;48.990;8.346;2023-07-22T03:17:35;100351.66;;;14.75;100.00
26112;BME280;13829;48.990;8.346;2023-07-22T03:20:02;100350.78;;;14.75;100.00
26112;BME280;13829;48.990;8.346;2023-07-22T03:22:34;100358.78;;;14.70;100.00
26112;BME280;13829;48.990;8.346;2023-07-22T03:25:02;100353.19;;;14.95;100.00
26112;BME280;13829;48.990;8.346;2023-07-22T03:27:33;100350.41;;;15.03;100.00
26112;BME280;13829;48.990;8.346;2023-07-22T03:30:00;100358.22;;;15.12;100.00
26112;BME280;13829;48.990;8.346;2023-07-22T03:32:27;100364.50;;;15.05;100.00
26112;BME280;13829;48.990;8.346;2023-07-22T03:34:54;100359.16;;;15.09;100.00
26112;BME280;13829;48.990;8.346;2023-07-22T03:37:21;100348.59;;;15.08;100.00
26112;BME280;13829;48.990;8.346;2023-07-22T03:39:48;100351.41;;;14.95;100.00
26112;BME280;13829;48.990;8.346;2023-07-22T03:42:17;100346.94;;;14.99;100.00
26112;BME280;13829;48.990;8.346;2023-07-22T03:44:44;100354.00;;;15.00;100.00
26112;BME280;13829;48.990;8.346;2023-07-22T03:47:11;100344.34;;;14.94;100.00
26112;BME280;13829;48.990;8.346;2023-07-22T03:49:38;100341.03;;;14.80;100.00
26112;BME280;13829;48.990;8.346;2023-07-22T03:52:07;100361.72;;;14.45;100.00
26112;BME280;13829;48.990;8.346;2023-07-22T03:54:34;100367.09;;;14.36;100.00
26112;BME280;13829;48.990;8.346;2023-07-22T03:57:01;100370.53;;;14.44;100.00
26112;BME280;13829;48.990;8.346;2023-07-22T03:59:29;100366.06;;;14.51;100.00
26112;BME280;13829;48.990;8.346;2023-07-22T04:01:56;100368.63;;;14.57;100.00
26112;BME280;13829;48.990;8.346;2023-07-22T04:04:23;100363.38;;;14.52;100.00
26112;BME280;13829;48.990;8.346;2023-07-22T04:06:50;100367.88;;;14.46;100.00
26112;BME280;13829;48.990;8.346;2023-07-22T04:09:17;100368.66;;;14.52;100.00
26112;BME280;13829;48.990;8.346;2023-07-22T04:11:44;100371.16;;;14.70;100.00
26112;BME280;13829;48.990;8.346;2023-07-22T04:14:10;100364.97;;;14.69;100.00
26112;BME280;13829;48.990;8.346;2023-07-22T04:16:39;100369.41;;;14.68;100.00
26112;BME280;13829;48.990;8.346;2023-07-22T04:19:06;100365.78;;;14.74;100.00
26112;BME280;13829;48.990;8.346;2023-07-22T04:21:33;100368.44;;;14.74;100.00
26112;BME280;13829;48.990;8.346;2023-07-22T04:24:00;100373.63;;;14.83;100.00
26112;BME280;13829;48.990;8.346;2023-07-22T04:26:27;100364.78;;;14.86;100.00
26112;BME280;13829;48.990;8.346;2023-07-22T04:28:53;100352.38;;;14.90;100.00
26112;BME280;13829;48.990;8.346;2023-07-22T04:31:21;100361.06;;;14.98;100.00
26112;BME280;13829;48.990;8.346;2023-07-22T04:33:50;100357.38;;;15.08;100.00
26112;BME280;13829;48.990;8.346;2023-07-22T04:36:17;100362.63;;;15.13;100.00
26112;BME280;13829;48.990;8.346;2023-07-22T04:38:43;100360.53;;;15.35;100.00
26112;BME280;13829;48.990;8.346;2023-07-22T04:41:10;100362.16;;;15.45;100.00
26112;BME280;13829;48.990;8.346;2023-07-22T04:43:37;100355.75;;;15.57;100.00
26112;BME280;13829;48.990;8.346;2023-07-22T04:46:05;100364.34;;;15.73;100.00
26112;BME280;13829;48.990;8.346;2023-07-22T04:48:33;100361.50;;;15.86;100.00
26112;BME280;13829;48.990;8.346;2023-07-22T04:51:01;100364.84;;;15.97;100.00
26112;BME280;13829;48.990;8.346;2023-07-22T04:53:28;100361.13;;;16.06;100.00
26112;BME280;13829;48.990;8.346;2023-07-22T04:55:55;100362.22;;;15.95;100.00
26112;BME280;13829;48.990;8.346;2023-07-22T04:58:23;100365.38;;;16.16;100.00
26112;BME280;13829;48.990;8.346;2023-07-22T05:00:50;100359.84;;;16.28;100.00
26112;BME280;13829;48.990;8.346;2023-07-22T05:03:18;100365.09;;;16.30;100.00
26112;BME280;13829;48.990;8.346;2023-07-22T05:05:45;100370.25;;;16.38;100.00
26112;BME280;13829;48.990;8.346;2023-07-22T05:08:13;100370.06;;;16.49;100.00
26112;BME280;13829;48.990;8.346;2023-07-22T05:10:40;100372.59;;;16.55;100.00
26112;BME280;13829;48.990;8.346;2023-07-22T05:13:07;100369.81;;;16.61;100.00
26112;BME280;13829;48.990;8.346;2023-07-22T05:15:34;100376.03;;;16.60;100.00
26112;BME280;13829;48.990;8.346;2023-07-22T05:18:01;100373.41;;;16.58;100.00
26112;BME280;13829;48.990;8.346;2023-07-22T05:20:28;100377.81;;;16.59;100.00
26112;BME280;13829;48.990;8.346;2023-07-22T05:22:55;100370.53;;;16.69;100.00
26112;BME280;13829;48.990;8.346;2023-07-22T05:25:24;100377.03;;;16.98;99.88
26112;BME280;13829;48.990;8.346;2023-07-22T05:27:50;100382.31;;;17.39;96.22
26112;BME280;13829;48.990;8.346;2023-07-22T05:30:17;100383.34;;;17.69;94.06
26112;BME280;13829;48.990;8.346;2023-07-22T05:32:44;100393.41;;;17.92;92.36
26112;BME280;13829;48.990;8.346;2023-07-22T05:35:11;100390.75;;;17.92;90.85
26112;BME280;13829;48.990;8.346;2023-07-22T05:37:38;100382.94;;;17.86;91.11
26112;BME280;13829;48.990;8.346;2023-07-22T05:40:07;100393.06;;;18.08;91.62
26112;BME280;13829;48.990;8.346;2023-07-22T05:42:36;100383.63;;;18.29;89.89
26112;BME280;13829;48.990;8.346;2023-07-22T05:45:04;100395.13;;;18.30;89.35
26112;BME280;13829;48.990;8.346;2023-07-22T05:47:31;100392.34;;;18.34;89.51
26112;BME280;13829;48.990;8.346;2023-07-22T05:49:57;100391.34;;;18.38;90.16
26112;BME280;13829;48.990;8.346;2023-07-22T05:52:24;100392.38;;;18.33;91.03
26112;BME280;13829;48.990;8.346;2023-07-22T05:54:51;100394.06;;;18.35;90.99
26112;BME280;13829;48.990;8.346;2023-07-22T05:57:18;100398.31;;;18.42;90.49
26112;BME280;13829;48.990;8.346;2023-07-22T05:59:46;100398.91;;;18.54;90.03
26112;BME280;13829;48.990;8.346;2023-07-22T06:02:13;100402.81;;;18.73;89.50
26112;BME280;13829;48.990;8.346;2023-07-22T06:04:40;100402.34;;;18.89;89.25
26112;BME280;13829;48.990;8.346;2023-07-22T06:07:07;100406.56;;;18.98;88.12
26112;BME280;13829;48.990;8.346;2023-07-22T06:09:34;100397.75;;;19.24;86.57
26112;BME280;13829;48.990;8.346;2023-07-22T06:12:02;100397.75;;;19.24;86.43
26112;BME280;13829;48.990;8.346;2023-07-22T06:14:29;100406.78;;;19.48;86.62
26112;BME280;13829;48.990;8.346;2023-07-22T06:16:58;100406.03;;;19.71;84.08
26112;BME280;13829;48.990;8.346;2023-07-22T06:19:25;100399.66;;;19.76;84.14
26112;BME280;13829;48.990;8.346;2023-07-22T06:21:52;100401.63;;;19.97;83.63
26112;BME280;13829;48.990;8.346;2023-07-22T06:24:19;100404.75;;;20.10;81.49
26112;BME280;13829;48.990;8.346;2023-07-22T06:26:46;100408.16;;;20.15;82.00
26112;BME280;13829;48.990;8.346;2023-07-22T06:29:13;100406.94;;;20.24;80.47
26112;BME280;13829;48.990;8.346;2023-07-22T06:31:40;100412.63;;;20.40;78.28
26112;BME280;13829;48.990;8.346;2023-07-22T06:34:08;100396.09;;;20.54;80.20
26112;BME280;13829;48.990;8.346;2023-07-22T06:36:35;100401.72;;;20.72;77.98
26112;BME280;13829;48.990;8.346;2023-07-22T06:39:02;100410.38;;;21.02;76.54
26112;BME280;13829;48.990;8.346;2023-07-22T06:41:29;100416.03;;;21.18;73.42
26112;BME280;13829;48.990;8.346;2023-07-22T06:43:56;100407.31;;;21.35;72.83
26112;BME280;13829;48.990;8.346;2023-07-22T06:46:23;100404.47;;;21.40;72.35
26112;BME280;13829;48.990;8.346;2023-07-22T06:48:50;100408.34;;;21.77;70.52
26112;BME280;13829;48.990;8.346;2023-07-22T06:51:18;100410.78;;;22.24;67.47
26112;BME280;13829;48.990;8.346;2023-07-22T06:53:45;100394.84;;;23.21;62.23
26112;BME280;13829;48.990;8.346;2023-07-22T06:56:12;100406.59;;;24.45;57.47
26112;BME280;13829;48.990;8.346;2023-07-22T06:58:39;100399.72;;;24.74;56.38
26112;BME280;13829;48.990;8.346;2023-07-22T07:01:06;100394.38;;;25.38;52.30
26112;BME280;13829;48.990;8.346;2023-07-22T07:03:33;100395.44;;;25.51;51.82
26112;BME280;13829;48.990;8.346;2023-07-22T07:06:00;100397.63;;;26.36;49.63
26112;BME280;13829;48.990;8.346;2023-07-22T07:08:29;100397.84;;;25.86;50.16
26112;BME280;13829;48.990;8.346;2023-07-22T07:10:59;100403.38;;;25.05;52.12
26112;BME280;13829;48.990;8.346;2023-07-22T07:13:26;100402.31;;;24.58;54.13
26112;BME280;13829;48.990;8.346;2023-07-22T07:15:55;100399.81;;;24.37;56.94
26112;BME280;13829;48.990;8.346;2023-07-22T07:18:22;100399.84;;;24.02;57.57
26112;BME280;13829;48.990;8.346;2023-07-22T07:20:49;100407.25;;;23.60;56.82
26112;BME280;13829;48.990;8.346;2023-07-22T07:23:16;100404.53;;;23.43;58.75
26112;BME280;13829;48.990;8.346;2023-07-22T07:25:45;100409.63;;;23.30;58.78
26112;BME280;13829;48.990;8.346;2023-07-22T07:28:12;100409.47;;;23.33;60.69
26112;BME280;13829;48.990;8.346;2023-07-22T07:30:40;100409.06;;;23.97;60.45
26112;BME280;13829;48.990;8.346;2023-07-22T07:33:07;100407.31;;;24.66;55.33
26112;BME280;13829;48.990;8.346;2023-07-22T07:35:34;100414.25;;;24.70;54.79
26112;BME280;13829;48.990;8.346;2023-07-22T07:38:01;100416.94;;;24.70;55.54
26112;BME280;13829;48.990;8.346;2023-07-22T07:40:28;100408.50;;;24.42;55.04
26112;BME280;13829;48.990;8.346;2023-07-22T07:42:59;100419.66;;;24.00;55.10
26112;BME280;13829;48.990;8.346;2023-07-22T07:45:25;100419.69;;;23.81;56.50
26112;BME280;13829;48.990;8.346;2023-07-22T07:47:52;100412.59;;;23.43;57.34
26112;BME280;13829;48.990;8.346;2023-07-22T07:50:19;100419.06;;;23.39;58.04
26112;BME280;13829;48.990;8.346;2023-07-22T07:52:46;100425.88;;;23.46;57.95
26112;BME280;13829;48.990;8.346;2023-07-22T07:55:14;100422.84;;;23.71;56.73
26112;BME280;13829;48.990;8.346;2023-07-22T07:57:40;100410.59;;;23.66;57.77
26112;BME280;13829;48.990;8.346;2023-07-22T08:00:10;100414.00;;;24.06;58.27
26112;BME280;13829;48.990;8.346;2023-07-22T08:02:37;100424.06;;;24.53;56.12
26112;BME280;13829;48.990;8.346;2023-07-22T08:05:05;100420.50;;;24.53;53.91
26112;BME280;13829;48.990;8.346;2023-07-22T08:07:32;100411.88;;;24.97;54.21
26112;BME280;13829;48.990;8.346;2023-07-22T08:10:00;100410.28;;;26.05;50.56
26112;BME280;13829;48.990;8.346;2023-07-22T08:12:30;100411.56;;;26.73;47.44
26112;BME280;13829;48.990;8.346;2023-07-22T08:14:57;100422.25;;;26.60;47.68
26112;BME280;13829;48.990;8.346;2023-07-22T08:17:25;100418.13;;;26.24;47.86
26112;BME280;13829;48.990;8.346;2023-07-22T08:19:52;100416.00;;;25.99;48.02
26112;BME280;13829;48.990;8.346;2023-07-22T08:22:19;100418.78;;;25.67;48.76
26112;BME280;13829;48.990;8.346;2023-07-22T08:24:46;100418.84;;;25.33;49.46
26112;BME280;13829;48.990;8.346;2023-07-22T08:27:13;100416.13;;;24.85;51.18
26112;BME280;13829;48.990;8.346;2023-07-22T08:29:40;100410.78;;;24.68;51.16
26112;BME280;13829;48.990;8.346;2023-07-22T08:32:07;100411.69;;;24.84;51.22
26112;BME280;13829;48.990;8.346;2023-07-22T08:34:35;100410.34;;;25.41;50.11
26112;BME280;13829;48.990;8.346;2023-07-22T08:37:02;100408.97;;;26.27;49.31
26112;BME280;13829;48.990;8.346;2023-07-22T08:39:29;100409.13;;;26.83;48.49
26112;BME280;13829;48.990;8.346;2023-07-22T08:41:57;100410.81;;;26.85;46.91
26112;BME280;13829;48.990;8.346;2023-07-22T08:44:32;100411.72;;;27.82;45.07
26112;BME280;13829;48.990;8.346;2023-07-22T08:47:02;100389.16;;;28.75;43.31
26112;BME280;13829;48.990;8.346;2023-07-22T08:49:30;100395.97;;;29.31;40.98
26112;BME280;13829;48.990;8.346;2023-07-22T08:52:00;100392.19;;;29.58;40.51
26112;BME280;13829;48.990;8.346;2023-07-22T08:54:28;100393.56;;;29.64;40.25
26112;BME280;13829;48.990;8.346;2023-07-22T08:56:55;100386.63;;;29.84;40.31
26112;BME280;13829;48.990;8.346;2023-07-22T08:59:24;100391.63;;;29.90;38.84
26112;BME280;13829;48.990;8.346;2023-07-22T09:01:51;100390.94;;;30.10;39.13
26112;BME280;13829;48.990;8.346;2023-07-22T09:04:18;100389.56;;;29.81;38.83
26112;BME280;13829;48.990;8.346;2023-07-22T09:06:46;100380.56;;;30.04;37.55
26112;BME280;13829;48.990;8.346;2023-07-22T09:09:15;100391.97;;;30.43;38.14
26112;BME280;13829;48.990;8.346;2023-07-22T09:11:42;100390.94;;;30.69;37.66
26112;BME280;13829;48.990;8.346;2023-07-22T09:14:12;100388.47;;;30.88;36.37
26112;BME280;13829;48.990;8.346;2023-07-22T09:16:40;100387.72;;;30.64;36.92
26112;BME280;13829;48.990;8.346;2023-07-22T09:19:08;100385.13;;;30.51;37.63
26112;BME280;13829;48.990;8.346;2023-07-22T09:21:35;100385.50;;;30.10;36.20
26112;BME280;13829;48.990;8.346;2023-07-22T09:24:21;100378.19;;;29.88;41.29
26112;BME280;13829;48.990;8.346;2023-07-22T09:26:48;100370.31;;;29.24;39.05
26112;BME280;13829;48.990;8.346;2023-07-22T09:29:15;100374.28;;;28.94;40.54
26112;BME280;13829;48.990;8.346;2023-07-22T09:31:50;100376.34;;;28.90;42.27
26112;BME280;13829;48.990;8.346;2023-07-22T09:34:17;100379.69;;;28.94;41.22
26112;BME280;13829;48.990;8.346;2023-07-22T09:36:51;100377.44;;;29.25;41.05
26112;BME280;13829;48.990;8.346;2023-07-22T09:39:20;100384.56;;;29.02;38.79
26112;BME280;13829;48.990;8.346;2023-07-22T09:41:48;100378.31;;;28.62;40.03
26112;BME280;13829;48.990;8.346;2023-07-22T09:44:15;100374.00;;;28.34;40.10
26112;BME280;13829;48.990;8.346;2023-07-22T09:46:46;100368.78;;;28.31;40.04
26112;BME280;13829;48.990;8.346;2023-07-22T09:49:16;100368.47;;;28.23;41.53
26112;BME280;13829;48.990;8.346;2023-07-22T09:51:44;100361.03;;;28.13;41.55
26112;BME280;13829;48.990;8.346;2023-07-22T09:54:11;100366.09;;;28.05;40.98
26112;BME280;13829;48.990;8.346;2023-07-22T09:56:48;100373.72;;;27.86;41.23
26112;BME280;13829;48.990;8.346;2023-07-22T09:59:17;100364.31;;;27.64;40.58
26112;BME280;13829;48.990;8.346;2023-07-22T10:01:46;100356.53;;;27.46;41.08
26112;BME280;13829;48.990;8.346;2023-07-22T10:04:16;100364.84;;;27.29;42.32
26112;BME280;13829;48.990;8.346;2023-07-22T10:06:43;100353.66;;;27.21;40.67
26112;BME280;13829;48.990;8.346;2023-07-22T10:09:12;100355.63;;;27.04;42.87
26112;BME280;13829;48.990;8.346;2023-07-22T10:11:40;100356.41;;;26.92;41.41
26112;BME280;13829;48.990;8.346;2023-07-22T10:14:09;100361.06;;;26.75;41.42
26112;BME280;13829;48.990;8.346;2023-07-22T10:16:38;100357.09;;;26.66;41.19
26112;BME280;13829;48.990;8.346;2023-07-22T10:19:06;100357.78;;;26.56;41.38
26112;BME280;13829;48.990;8.346;2023-07-22T10:21:34;100348.16;;;26.51;45.01
26112;BME280;13829;48.990;8.346;2023-07-22T10:24:03;100358.34;;;26.32;43.21
26112;BME280;13829;48.990;8.346;2023-07-22T10:26:31;100359.50;;;26.13;41.65
26112;BME280;13829;48.990;8.346;2023-07-22T10:28:59;100351.84;;;26.05;44.72
26112;BME280;13829;48.990;8.346;2023-07-22T10:31:31;100343.44;;;25.96;41.77
26112;BME280;13829;48.990;8.346;2023-07-22T10:33:58;100348.53;;;26.00;43.00
26112;BME280;13829;48.990;8.346;2023-07-22T10:36:29;100349.88;;;25.93;42.97
26112;BME280;13829;48.990;8.346;2023-07-22T10:38:58;100346.19;;;25.80;42.82
26112;BME280;13829;48.990;8.346;2023-07-22T10:41:25;100350.38;;;25.69;42.71
26112;BME280;13829;48.990;8.346;2023-07-22T10:43:55;100345.84;;;25.70;42.84
26112;BME280;13829;48.990;8.346;2023-07-22T10:46:33;100341.16;;;25.73;42.86
26112;BME280;13829;48.990;8.346;2023-07-22T10:49:11;100327.81;;;25.86;43.17
26112;BME280;13829;48.990;8.346;2023-07-22T10:51:38;100336.56;;;26.06;43.91
26112;BME280;13829;48.990;8.346;2023-07-22T10:54:12;100332.72;;;26.25;43.64
26112;BME280;13829;48.990;8.346;2023-07-22T10:56:43;100318.09;;;26.29;41.46
26112;BME280;13829;48.990;8.346;2023-07-22T10:59:11;100320.81;;;26.29;42.23
26112;BME280;13829;48.990;8.346;2023-07-22T11:01:43;100320.97;;;26.26;42.14
26112;BME280;13829;48.990;8.346;2023-07-22T11:04:21;100335.84;;;26.02;44.04
26112;BME280;13829;48.990;8.346;2023-07-22T11:06:55;100323.59;;;25.97;42.59
26112;BME280;13829;48.990;8.346;2023-07-22T11:09:38;100330.13;;;25.93;42.26
26112;BME280;13829;48.990;8.346;2023-07-22T11:12:08;100330.88;;;26.11;41.66
26112;BME280;13829;48.990;8.346;2023-07-22T11:14:40;100325.81;;;26.35;42.60
26112;BME280;13829;48.990;8.346;2023-07-22T11:17:08;100316.25;;;26.29;40.70
26112;BME280;13829;48.990;8.346;2023-07-22T11:19:37;100312.53;;;26.46;41.79
26112;BME280;13829;48.990;8.346;2023-07-22T11:22:05;100309.69;;;26.62;41.85
26112;BME280;13829;48.990;8.346;2023-07-22T11:24:34;100300.16;;;26.71;40.49
26112;BME280;13829;48.990;8.346;2023-07-22T11:27:03;100298.91;;;26.62;40.38
26112;BME280;13829;48.990;8.346;2023-07-22T11:29:31;100286.09;;;26.66;40.70
26112;BME280;13829;48.990;8.346;2023-07-22T11:31:58;100289.75;;;26.65;40.53
26112;BME280;13829;48.990;8.346;2023-07-22T11:34:27;100286.31;;;26.77;39.24
26112;BME280;13829;48.990;8.346;2023-07-22T11:36:56;100296.56;;;26.99;39.86
26112;BME280;13829;48.990;8.346;2023-07-22T11:39:25;100289.78;;;27.07;40.83
26112;BME280;13829;48.990;8.346;2023-07-22T11:41:53;100281.38;;;27.11;38.25
26112;BME280;13829;48.990;8.346;2023-07-22T11:44:26;100281.13;;;27.01;38.21
26112;BME280;13829;48.990;8.346;2023-07-22T11:46:58;100278.88;;;26.81;38.47
26112;BME280;13829;48.990;8.346;2023-07-22T11:49:28;100280.53;;;26.54;38.47
26112;BME280;13829;48.990;8.346;2023-07-22T11:51:58;100289.69;;;26.37;38.68
26112;BME280;13829;48.990;8.346;2023-07-22T11:54:26;100286.13;;;26.23;40.35
26112;BME280;13829;48.990;8.346;2023-07-22T11:56:53;100283.50;;;26.07;40.15
26112;BME280;13829;48.990;8.346;2023-07-22T11:59:35;100280.31;;;25.85;41.29
26112;BME280;13829;48.990;8.346;2023-07-22T12:02:03;100288.88;;;25.92;40.51
26112;BME280;13829;48.990;8.346;2023-07-22T12:04:33;100282.81;;;26.03;39.77
26112;BME280;13829;48.990;8.346;2023-07-22T12:07:01;100278.31;;;26.03;39.70
26112;BME280;13829;48.990;8.346;2023-07-22T12:09:30;100284.03;;;26.13;39.21
26112;BME280;13829;48.990;8.346;2023-07-22T12:11:58;100281.50;;;26.25;39.66
26112;BME280;13829;48.990;8.346;2023-07-22T12:14:34;100263.88;;;26.33;40.12
26112;BME280;13829;48.990;8.346;2023-07-22T12:17:02;100270.53;;;26.28;39.26
26112;BME280;13829;48.990;8.346;2023-07-22T12:19:29;100273.41;;;26.10;40.22
26112;BME280;13829;48.990;8.346;2023-07-22T12:21:58;100269.31;;;25.88;40.06
26112;BME280;13829;48.990;8.346;2023-07-22T12:24:25;100268.84;;;25.82;39.29
26112;BME280;13829;48.990;8.346;2023-07-22T12:26:51;100260.94;;;25.79;39.35
26112;BME280;13829;48.990;8.346;2023-07-22T12:29:18;100254.50;;;25.81;38.81
26112;BME280;13829;48.990;8.346;2023-07-22T12:31:45;100259.50;;;25.87;38.00
26112;BME280;13829;48.990;8.346;2023-07-22T12:34:12;100247.38;;;25.80;38.69
26112;BME280;13829;48.990;8.346;2023-07-22T12:36:40;100246.31;;;25.83;39.03
26112;BME280;13829;48.990;8.346;2023-07-22T12:39:08;100245.94;;;25.89;38.48
26112;BME280;13829;48.990;8.346;2023-07-22T12:41:35;100240.47;;;25.91;38.64
26112;BME280;13829;48.990;8.346;2023-07-22T12:44:02;100235.63;;;25.81;37.98
26112;BME280;13829;48.990;8.346;2023-07-22T12:46:30;100232.47;;;25.89;39.41
26112;BME280;13829;48.990;8.346;2023-07-22T12:48:56;100233.28;;;26.05;39.03